createdAt,value
2019-03-11T00:00:53.786Z,45.42
2019-03-11T00:03:20.096Z,45.17
2019-03-11T00:05:46.408Z,44.40
2019-03-11T00:08:12.727Z,44.25
2019-03-11T00:10:39.042Z,43.74
2019-03-11T00:13:05.350Z,44.08
2019-03-11T00:15:31.665Z,44.41
2019-03-11T00:17:57.987Z,44.85
2019-03-11T00:20:24.290Z,45.20
2019-03-11T00:22:50.605Z,45.20
2019-03-11T00:25:16.914Z,45.01
2019-03-11T00:27:43.228Z,44.76
2019-03-11T00:30:09.545Z,44.60
2019-03-11T00:32:35.897Z,44.51
2019-03-11T00:35:02.208Z,44.37
2019-03-11T00:37:28.514Z,44.76
2019-03-11T00:39:54.829Z,45.12
2019-03-11T00:42:21.132Z,45.73
2019-03-11T00:44:47.447Z,45.75
2019-03-11T00:47:13.759Z,45.86
2019-03-11T00:49:40.071Z,46.07
2019-03-11T00:52:06.435Z,45.90
2019-03-11T00:54:32.780Z,45.93
2019-03-11T00:56:59.013Z,45.98
2019-03-11T00:59:25.329Z,46.65
2019-03-11T01:01:51.639Z,45.94
2019-03-11T01:04:17.958Z,46.21
2019-03-11T01:06:44.274Z,46.30
2019-03-11T01:09:10.586Z,46.43
2019-03-11T01:11:36.903Z,46.49
2019-03-11T01:14:03.221Z,46.55
2019-03-11T01:16:29.530Z,46.72
2019-03-11T01:18:55.843Z,46.96
2019-03-11T01:21:22.153Z,47.43
2019-03-11T01:23:48.470Z,47.58
2019-03-11T01:26:14.785Z,48.30
2019-03-11T01:28:41.099Z,48.92
2019-03-11T01:31:07.410Z,49.42
2019-03-11T01:33:33.722Z,49.50
2019-03-11T01:36:00.074Z,49.80
2019-03-11T01:38:26.359Z,50.56
2019-03-11T01:40:52.669Z,50.85
2019-03-11T01:43:18.982Z,50.91
2019-03-11T01:45:45.304Z,51.04
2019-03-11T01:48:11.626Z,51.57
2019-03-11T01:50:37.938Z,51.37
2019-03-11T01:53:04.254Z,51.62
2019-03-11T01:55:30.571Z,51.92
2019-03-11T01:57:56.878Z,52.23
2019-03-11T02:00:23.180Z,52.58
2019-03-11T02:02:49.495Z,52.64
2019-03-11T02:05:15.806Z,52.65
2019-03-11T02:07:42.122Z,52.78
2019-03-11T02:10:08.428Z,52.52
2019-03-11T02:12:34.742Z,52.47
2019-03-11T02:15:01.062Z,52.57
2019-03-11T02:17:27.477Z,52.61
2019-03-11T02:19:53.786Z,52.54
2019-03-11T02:22:20.100Z,52.67
2019-03-11T02:24:46.405Z,52.65
2019-03-11T02:27:12.733Z,52.66
2019-03-11T02:29:39.046Z,52.94
2019-03-11T02:32:05.345Z,53.08
2019-03-11T02:34:31.665Z,53.17
2019-03-11T02:36:57.997Z,53.50
2019-03-11T02:39:24.307Z,53.47
2019-03-11T02:41:50.612Z,53.56
2019-03-11T02:44:16.926Z,53.62
2019-03-11T02:46:43.237Z,54.28
2019-03-11T02:49:09.556Z,53.93
2019-03-11T02:51:35.875Z,54.41
2019-03-11T02:54:02.200Z,54.36
2019-03-11T02:56:28.549Z,54.32
2019-03-11T02:58:54.823Z,54.29
2019-03-11T03:01:21.139Z,54.19
2019-03-11T03:03:47.444Z,54.45
2019-03-11T03:06:13.754Z,54.54
2019-03-11T03:08:40.068Z,54.86
2019-03-11T03:11:06.375Z,54.87
2019-03-11T03:13:32.685Z,56.18
2019-03-11T03:15:59.007Z,55.70
2019-03-11T03:18:25.309Z,55.15
2019-03-11T03:20:51.631Z,55.10
2019-03-11T03:23:17.944Z,55.30
2019-03-11T03:25:44.249Z,54.99
2019-03-11T03:28:10.559Z,55.13
2019-03-11T03:30:36.893Z,54.90
2019-03-11T03:33:03.207Z,54.13
2019-03-11T03:35:29.505Z,53.72
2019-03-11T03:37:55.833Z,55.18
2019-03-11T03:40:22.134Z,55.75
2019-03-11T03:42:48.477Z,54.17
2019-03-11T03:45:14.756Z,55.46
2019-03-11T03:47:41.066Z,55.05
2019-03-11T03:50:07.386Z,55.72
2019-03-11T03:52:33.701Z,55.55
2019-03-11T03:55:00.010Z,55.25
2019-03-11T03:57:26.324Z,55.78
2019-03-11T03:59:52.635Z,55.26
2019-03-11T04:02:18.942Z,55.59
2019-03-11T04:04:45.248Z,56.29
2019-03-11T04:07:11.561Z,55.96
2019-03-11T04:09:37.873Z,56.06
2019-03-11T04:12:04.199Z,56.30
2019-03-11T04:14:30.545Z,56.20
2019-03-11T04:16:56.874Z,56.44
2019-03-11T04:19:23.198Z,55.98
2019-03-11T04:21:49.523Z,56.64
2019-03-11T04:24:15.836Z,56.12
2019-03-11T04:26:42.148Z,56.10
2019-03-11T04:29:08.451Z,56.41
2019-03-11T04:31:34.769Z,56.27
2019-03-11T04:34:01.078Z,56.48
2019-03-11T04:36:27.391Z,56.58
2019-03-11T04:38:53.695Z,56.99
2019-03-11T04:41:20.035Z,56.86
2019-03-11T04:43:46.342Z,56.88
2019-03-11T04:46:12.665Z,57.04
2019-03-11T04:48:38.980Z,57.21
2019-03-11T04:51:05.285Z,56.96
2019-03-11T04:53:31.613Z,56.82
2019-03-11T04:55:57.918Z,57.02
2019-03-11T04:58:24.235Z,56.89
2019-03-11T05:00:50.541Z,56.82
2019-03-11T05:03:16.858Z,56.63
2019-03-11T05:05:43.168Z,56.49
2019-03-11T05:08:09.493Z,56.23
2019-03-11T05:10:35.810Z,56.08
2019-03-11T05:13:02.120Z,56.45
2019-03-11T05:15:28.438Z,56.47
2019-03-11T05:17:54.747Z,56.24
2019-03-11T05:20:21.070Z,56.63
2019-03-11T05:22:47.404Z,56.62
2019-03-11T05:25:13.715Z,56.67
2019-03-11T05:27:40.031Z,56.12
2019-03-11T05:30:08.093Z,56.28
2019-03-11T05:32:33.109Z,55.73
2019-03-11T05:34:59.532Z,55.46
2019-03-11T05:37:25.814Z,55.79
2019-03-11T05:39:52.131Z,55.83
2019-03-11T05:42:18.449Z,56.66
2019-03-11T05:44:44.776Z,56.23
2019-03-11T05:47:11.121Z,55.48
2019-03-11T05:49:37.408Z,55.47
2019-03-11T05:52:03.717Z,55.10
2019-03-11T05:54:30.032Z,55.27
2019-03-11T05:56:58.967Z,55.30
2019-03-11T05:59:22.673Z,55.02
2019-03-11T06:01:48.989Z,54.90
2019-03-11T06:04:15.532Z,55.09
2019-03-11T06:06:41.846Z,55.02
2019-03-11T06:09:08.158Z,55.02
2019-03-11T06:11:34.498Z,55.06
2019-03-11T06:14:00.810Z,55.20
2019-03-11T06:16:27.135Z,54.95
2019-03-11T06:18:53.484Z,54.85
2019-03-11T06:21:19.825Z,54.86
2019-03-11T06:23:46.149Z,55.04
2019-03-11T06:26:12.423Z,54.06
2019-03-11T06:28:38.768Z,52.62
2019-03-11T06:31:05.057Z,52.18
2019-03-11T06:33:31.372Z,51.96
2019-03-11T06:35:57.742Z,52.16
2019-03-11T06:38:24.058Z,51.53
2019-03-11T06:40:50.526Z,51.13
2019-03-11T06:43:16.795Z,50.44
2019-03-11T06:45:43.109Z,50.32
2019-03-11T06:50:54.725Z,50.23
2019-03-11T06:53:21.044Z,50.13
2019-03-11T06:55:47.609Z,49.76
2019-03-11T06:58:13.957Z,49.76
2019-03-11T07:00:40.241Z,48.95
2019-03-11T07:03:06.549Z,48.28
2019-03-11T07:05:33.696Z,47.12
2019-03-11T07:08:00.065Z,46.75
2019-03-11T07:10:28.950Z,46.10
2019-03-11T07:12:55.256Z,45.50
2019-03-11T07:15:21.581Z,44.93
2019-03-11T07:17:47.897Z,43.94
2019-03-11T07:20:14.210Z,43.51
2019-03-11T07:22:40.561Z,42.40
2019-03-11T07:25:06.851Z,42.64
2019-03-11T07:27:33.173Z,42.66
2019-03-11T07:29:59.475Z,42.08
2019-03-11T07:32:25.828Z,41.54
2019-03-11T07:34:52.153Z,41.20
2019-03-11T07:37:18.538Z,41.57
2019-03-11T07:39:44.769Z,41.14
2019-03-11T07:42:11.357Z,40.28
2019-03-11T07:44:37.830Z,40.55
2019-03-11T07:47:13.308Z,40.35
2019-03-11T07:49:39.462Z,41.05
2019-03-11T07:52:05.822Z,41.60
2019-03-11T07:54:35.798Z,41.08
2019-03-11T07:56:58.446Z,41.05
2019-03-11T07:59:24.754Z,40.09
2019-03-11T08:01:51.066Z,40.00
2019-03-11T08:04:17.418Z,39.83
2019-03-11T08:06:43.740Z,38.95
2019-03-11T08:09:10.075Z,38.40
2019-03-11T08:11:36.402Z,39.58
2019-03-11T08:14:02.719Z,39.38
2019-03-11T08:16:29.535Z,39.47
2019-03-11T08:18:55.841Z,38.75
2019-03-11T08:21:22.134Z,37.94
2019-03-11T08:23:48.446Z,37.96
2019-03-11T08:26:14.753Z,37.16
2019-03-11T08:28:41.065Z,37.67
2019-03-11T08:31:07.387Z,37.69
2019-03-11T08:33:33.692Z,37.17
2019-03-11T08:36:00.010Z,36.42
2019-03-11T08:38:26.329Z,37.47
2019-03-11T08:40:52.655Z,37.03
2019-03-11T08:43:19.058Z,36.51
2019-03-11T08:45:45.348Z,36.37
2019-03-11T08:48:11.658Z,36.87
2019-03-11T08:50:38.014Z,36.71
2019-03-11T08:53:04.290Z,36.77
2019-03-11T08:55:30.616Z,36.87
2019-03-11T08:57:57.212Z,36.14
2019-03-11T09:00:23.521Z,35.47
2019-03-11T09:02:49.832Z,34.99
2019-03-11T09:05:16.211Z,34.23
2019-03-11T09:07:42.522Z,34.40
2019-03-11T09:10:08.854Z,34.59
2019-03-11T09:12:41.311Z,35.22
2019-03-11T09:15:07.638Z,35.26
2019-03-11T09:17:34.802Z,34.41
2019-03-11T09:20:00.349Z,34.47
2019-03-11T09:22:26.652Z,35.12
2019-03-11T09:24:52.985Z,35.30
2019-03-11T09:27:19.337Z,34.92
2019-03-11T09:29:45.659Z,35.00
2019-03-11T09:32:11.965Z,34.64
2019-03-11T09:34:38.294Z,34.51
2019-03-11T09:37:04.633Z,33.91
2019-03-11T09:39:30.957Z,33.39
2019-03-11T09:41:57.270Z,33.74
2019-03-11T09:44:23.602Z,33.38
2019-03-11T09:46:49.941Z,33.75
2019-03-11T09:49:16.282Z,34.68
2019-03-11T09:51:42.615Z,35.12
2019-03-11T09:54:08.942Z,36.70
2019-03-11T09:56:42.958Z,37.74
2019-03-11T09:59:01.565Z,38.81
2019-03-11T10:01:27.883Z,39.50
2019-03-11T10:03:54.190Z,40.02
2019-03-11T10:06:20.549Z,40.69
2019-03-11T10:08:46.857Z,41.09
2019-03-11T10:11:13.165Z,42.00
2019-03-11T10:13:39.495Z,42.52
2019-03-11T10:16:05.945Z,42.84
2019-03-11T10:18:32.156Z,43.39
2019-03-11T10:20:58.537Z,44.06
2019-03-11T10:23:32.023Z,44.22
2019-03-11T10:25:51.310Z,44.00
2019-03-11T10:28:17.640Z,43.92
2019-03-11T10:30:43.949Z,44.11
2019-03-11T10:33:10.286Z,44.20
2019-03-11T10:35:36.620Z,43.88
2019-03-11T10:38:02.919Z,43.43
2019-03-11T10:40:29.232Z,43.38
2019-03-11T10:42:55.554Z,43.24
2019-03-11T10:45:30.534Z,43.06
2019-03-11T10:47:48.618Z,43.57
2019-03-11T10:50:14.929Z,43.41
2019-03-11T10:52:41.258Z,43.63
2019-03-11T10:55:07.570Z,43.67
2019-03-11T10:57:33.910Z,44.21
2019-03-11T11:00:00.391Z,44.38
2019-03-11T11:02:26.626Z,44.82
2019-03-11T11:04:53.005Z,44.77
2019-03-11T11:07:19.346Z,43.14
2019-03-11T11:09:45.625Z,42.78
2019-03-11T11:12:11.967Z,43.20
2019-03-11T11:14:38.317Z,42.73
2019-03-11T11:17:04.587Z,42.35
2019-03-11T11:19:30.913Z,42.06
2019-03-11T11:21:57.220Z,42.74
2019-03-11T11:24:23.532Z,43.12
2019-03-11T11:26:49.854Z,42.40
2019-03-11T11:29:16.156Z,41.45
2019-03-11T11:31:42.476Z,41.56
2019-03-11T11:34:08.787Z,41.80
2019-03-11T11:36:35.097Z,41.60
2019-03-11T11:39:01.405Z,41.60
2019-03-11T11:41:27.729Z,41.94
2019-03-11T11:43:54.047Z,41.67
2019-03-11T11:46:20.358Z,41.46
2019-03-11T11:48:46.681Z,39.86
2019-03-11T11:51:12.995Z,38.41
2019-03-11T11:53:39.299Z,37.96
2019-03-11T11:56:05.608Z,36.94
2019-03-11T11:58:31.912Z,35.92
2019-03-11T12:00:58.226Z,36.08
2019-03-11T12:03:24.538Z,35.40
2019-03-11T12:05:50.879Z,35.62
2019-03-11T12:08:17.193Z,37.33
2019-03-11T12:10:43.496Z,37.76
2019-03-11T12:13:09.825Z,37.88
2019-03-11T12:15:36.134Z,38.53
2019-03-11T12:18:02.444Z,39.06
2019-03-11T12:20:28.761Z,40.11
2019-03-11T12:22:55.132Z,40.60
2019-03-11T12:25:21.449Z,40.60
2019-03-11T12:27:53.559Z,41.11
2019-03-11T12:30:14.078Z,41.15
2019-03-11T12:32:40.412Z,41.27
2019-03-11T12:35:06.728Z,41.23
2019-03-11T12:37:33.042Z,41.20
2019-03-11T12:39:59.352Z,41.11
2019-03-11T12:42:25.679Z,41.37
2019-03-11T12:44:53.736Z,41.21
2019-03-11T12:47:18.345Z,40.48
2019-03-11T12:49:44.677Z,39.28
2019-03-11T12:52:10.988Z,39.37
2019-03-11T12:54:37.309Z,38.48
2019-03-11T12:57:03.622Z,37.28
2019-03-11T12:59:29.933Z,37.37
2019-03-11T13:01:56.255Z,37.28
2019-03-11T13:04:22.564Z,36.73
2019-03-11T13:06:48.874Z,37.95
2019-03-11T13:09:15.189Z,38.00
2019-03-11T13:11:41.497Z,38.44
2019-03-11T13:14:07.829Z,39.47
2019-03-11T13:16:34.138Z,40.76
2019-03-11T13:19:00.447Z,41.34
2019-03-11T13:21:26.763Z,41.75
2019-03-11T13:23:53.069Z,42.13
2019-03-11T13:26:19.545Z,42.47
2019-03-11T13:28:48.378Z,43.13
2019-03-11T13:31:14.680Z,42.92
2019-03-11T13:33:40.988Z,43.34
2019-03-11T13:36:07.334Z,43.46
2019-03-11T13:38:34.612Z,42.99
2019-03-11T13:40:59.924Z,42.98
2019-03-11T13:43:26.237Z,43.34
2019-03-11T13:45:52.557Z,43.69
2019-03-11T13:48:18.888Z,43.68
2019-03-11T13:50:45.196Z,43.77
2019-03-11T13:53:11.507Z,43.78
2019-03-11T13:55:37.811Z,43.67
2019-03-11T13:58:04.116Z,43.76
2019-03-11T14:00:30.428Z,43.72
2019-03-11T14:02:56.731Z,44.76
2019-03-11T14:05:23.099Z,45.61
2019-03-11T14:07:49.414Z,46.23
2019-03-11T14:10:15.727Z,47.04
2019-03-11T14:12:42.076Z,47.44
2019-03-11T14:15:08.438Z,48.35
2019-03-11T14:17:34.667Z,48.83
2019-03-11T14:20:00.971Z,49.65
2019-03-11T14:22:27.422Z,50.01
2019-03-11T14:24:53.789Z,50.69
2019-03-11T14:27:20.097Z,51.07
2019-03-11T14:29:46.409Z,51.49
2019-03-11T14:32:12.915Z,52.06
2019-03-11T14:34:39.035Z,52.26
2019-03-11T14:37:05.390Z,52.33
2019-03-11T14:39:31.700Z,52.51
2019-03-11T14:41:58.003Z,52.95
2019-03-11T14:44:24.319Z,53.19
2019-03-11T14:46:50.621Z,53.82
2019-03-11T14:49:16.947Z,54.64
2019-03-11T14:51:43.251Z,55.00
2019-03-11T14:54:09.628Z,54.99
2019-03-11T14:56:35.929Z,55.20
2019-03-11T14:59:02.264Z,55.70
2019-03-11T15:01:28.577Z,56.07
2019-03-11T15:03:54.888Z,56.02
2019-03-11T15:06:21.218Z,55.97
2019-03-11T15:08:47.514Z,56.27
2019-03-11T15:11:13.841Z,56.17
2019-03-11T15:13:40.194Z,56.94
2019-03-11T15:16:06.525Z,58.52
2019-03-11T15:18:32.829Z,58.90
2019-03-11T15:20:59.137Z,59.77
2019-03-11T15:23:25.463Z,60.72
2019-03-11T15:25:51.761Z,61.47
2019-03-11T15:28:18.248Z,62.11
2019-03-11T15:30:44.541Z,61.83
2019-03-11T15:33:10.837Z,61.36
2019-03-11T15:35:37.211Z,61.53
2019-03-11T15:38:03.501Z,62.02
2019-03-11T15:40:29.826Z,62.79
2019-03-11T15:42:56.116Z,62.93
2019-03-11T15:45:22.441Z,62.72
2019-03-11T15:47:48.758Z,63.32
2019-03-11T15:50:15.061Z,63.40
2019-03-11T15:52:41.371Z,63.57
2019-03-11T15:55:07.742Z,63.73
2019-03-11T15:57:38.974Z,64.72
2019-03-11T16:00:00.388Z,65.26
2019-03-11T16:02:28.034Z,65.54
2019-03-11T16:04:54.342Z,65.60
2019-03-11T16:07:20.756Z,65.36
2019-03-11T16:09:47.017Z,66.07
2019-03-11T16:12:13.314Z,66.44
2019-03-11T16:14:48.919Z,66.75
2019-03-11T16:17:05.987Z,66.84
2019-03-11T16:19:32.242Z,65.99
2019-03-11T16:21:58.554Z,65.95
2019-03-11T16:24:24.873Z,66.16
2019-03-11T16:26:51.176Z,65.93
2019-03-11T16:29:17.509Z,65.80
2019-03-11T16:31:43.825Z,67.18
2019-03-11T16:34:10.138Z,68.48
2019-03-11T16:36:36.590Z,69.38
2019-03-11T16:39:02.930Z,70.08
2019-03-11T16:41:29.205Z,71.57
2019-03-11T16:43:55.515Z,73.05
2019-03-11T16:46:21.830Z,75.18
2019-03-11T16:48:48.263Z,74.93
2019-03-11T16:51:17.062Z,74.47
2019-03-11T16:53:43.389Z,74.70
2019-03-11T16:56:09.684Z,74.83
2019-03-11T16:58:36.016Z,75.21
2019-03-11T17:01:02.323Z,74.99
2019-03-11T17:03:28.642Z,74.58
2019-03-11T17:05:55.482Z,74.78
2019-03-11T17:08:21.750Z,74.06
2019-03-11T17:10:48.056Z,74.31
2019-03-11T17:13:14.381Z,74.77
2019-03-11T17:15:40.686Z,74.46
2019-03-11T17:18:06.999Z,75.28
2019-03-11T17:20:33.302Z,75.40
2019-03-11T17:22:59.527Z,76.20
2019-03-11T17:25:25.845Z,75.98
2019-03-11T17:27:53.128Z,76.72
2019-03-11T17:30:19.382Z,77.22
2019-03-11T17:32:45.719Z,78.62
2019-03-11T17:35:14.790Z,78.45
2019-03-11T17:37:41.097Z,79.03
2019-03-11T17:40:07.402Z,79.93
2019-03-11T17:42:33.709Z,86.67
2019-03-11T17:45:00.027Z,90.29
2019-03-11T17:47:26.333Z,90.80
2019-03-11T17:49:52.648Z,91.73
2019-03-11T17:52:18.954Z,92.25
2019-03-11T17:54:45.264Z,93.08
2019-03-11T17:57:11.571Z,91.69
2019-03-11T17:59:37.902Z,91.49
2019-03-11T18:02:04.268Z,92.64
2019-03-11T18:04:30.544Z,91.34
2019-03-11T18:06:56.953Z,91.46
2019-03-11T18:09:23.246Z,92.30
2019-03-11T18:11:49.560Z,93.59
2019-03-11T18:14:15.901Z,92.36
2019-03-11T18:16:42.213Z,93.03
2019-03-11T18:19:08.517Z,94.94
2019-03-11T18:21:34.820Z,92.26
2019-03-11T18:24:01.123Z,93.70
2019-03-11T18:26:27.494Z,93.38
2019-03-11T18:28:53.823Z,92.63
2019-03-11T18:31:20.124Z,94.22
2019-03-11T18:33:46.448Z,93.86
2019-03-11T18:36:12.743Z,95.33
2019-03-11T18:38:39.110Z,95.30
2019-03-11T18:41:05.392Z,94.84
2019-03-11T18:43:42.082Z,94.82
2019-03-11T18:45:58.001Z,95.65
2019-03-11T18:48:24.303Z,94.20
2019-03-11T18:50:50.649Z,94.11
2019-03-11T18:53:19.346Z,93.02
2019-03-11T18:55:43.262Z,92.66
2019-03-11T18:58:09.589Z,92.86
2019-03-11T19:00:36.162Z,91.66
2019-03-11T19:03:02.616Z,89.22
2019-03-11T19:05:30.870Z,92.08
2019-03-11T19:07:55.627Z,90.16
2019-03-11T19:10:21.858Z,89.76
2019-03-11T19:12:48.163Z,88.71
2019-03-11T19:15:14.630Z,90.29
2019-03-11T19:17:41.386Z,88.81
2019-03-11T19:20:07.712Z,89.52
2019-03-11T19:22:33.997Z,89.28
2019-03-11T19:25:00.348Z,89.63
2019-03-11T19:27:26.656Z,89.80
2019-03-11T19:29:52.959Z,90.46
2019-03-11T19:32:19.299Z,88.89
2019-03-11T19:34:45.585Z,90.77
2019-03-11T19:37:11.893Z,90.09
2019-03-11T19:39:38.207Z,89.81
2019-03-11T19:42:04.561Z,89.34
2019-03-11T19:44:30.888Z,89.32
2019-03-11T19:46:57.215Z,89.51
2019-03-11T19:49:23.531Z,85.61
2019-03-11T19:51:49.809Z,84.76
2019-03-11T19:54:16.115Z,85.20
2019-03-11T19:56:42.422Z,86.34
2019-03-11T19:59:08.819Z,87.55
2019-03-11T20:01:35.042Z,86.04
2019-03-11T20:04:01.451Z,87.46
2019-03-11T20:06:27.747Z,86.89
2019-03-11T20:08:54.065Z,86.41
2019-03-11T20:11:20.480Z,85.72
2019-03-11T20:13:46.698Z,86.70
2019-03-11T20:16:13.014Z,86.13
2019-03-11T20:18:39.328Z,85.48
2019-03-11T20:21:05.662Z,86.11
2019-03-11T20:23:31.985Z,85.61
2019-03-11T20:25:58.294Z,86.68
2019-03-11T20:28:24.665Z,87.36
2019-03-11T20:30:50.955Z,87.05
2019-03-11T20:33:17.215Z,87.79
2019-03-11T20:35:43.513Z,87.42
2019-03-11T20:38:09.925Z,87.16
2019-03-11T20:40:36.229Z,87.66
2019-03-11T20:43:02.523Z,87.50
2019-03-11T20:45:28.834Z,87.97
2019-03-11T20:47:55.147Z,87.76
2019-03-11T20:50:21.467Z,87.58
2019-03-11T20:52:47.866Z,87.78
2019-03-11T20:55:14.168Z,88.17
2019-03-11T20:57:40.476Z,88.06
2019-03-11T21:00:06.825Z,88.41
2019-03-11T21:02:33.172Z,88.20
2019-03-11T21:04:59.672Z,88.65
2019-03-11T21:07:25.917Z,88.73
2019-03-11T21:09:52.192Z,88.72
2019-03-11T21:12:18.557Z,88.94
2019-03-11T21:14:44.854Z,88.91
2019-03-11T21:17:11.164Z,89.20
2019-03-11T21:19:37.486Z,88.83
2019-03-11T21:22:03.768Z,88.76
2019-03-11T21:24:30.166Z,88.32
2019-03-11T21:26:56.417Z,88.12
2019-03-11T21:29:24.406Z,88.07
2019-03-11T21:31:49.053Z,88.60
2019-03-11T21:34:15.465Z,88.05
2019-03-11T21:36:41.788Z,88.08
2019-03-11T21:39:08.021Z,87.76
2019-03-11T21:41:34.306Z,87.44
2019-03-11T21:44:00.631Z,87.73
2019-03-11T21:46:27.013Z,87.97
2019-03-11T21:48:53.301Z,87.21
2019-03-11T21:51:19.588Z,87.34
2019-03-11T21:53:45.896Z,86.98
2019-03-11T21:56:12.223Z,87.26
2019-03-11T21:58:38.577Z,87.71
2019-03-11T22:01:04.933Z,87.74
2019-03-11T22:03:31.203Z,88.08
2019-03-11T22:05:57.516Z,87.11
2019-03-11T22:08:23.916Z,87.77
2019-03-11T22:10:50.129Z,86.93
2019-03-11T22:13:16.479Z,87.46
2019-03-11T22:15:42.808Z,86.62
2019-03-11T22:18:09.117Z,86.58
2019-03-11T22:20:35.421Z,86.49
2019-03-11T22:23:01.731Z,86.53
2019-03-11T22:25:28.037Z,86.44
2019-03-11T22:27:54.356Z,86.88
2019-03-11T22:30:20.670Z,86.45
2019-03-11T22:32:46.960Z,86.37
2019-03-11T22:35:13.490Z,85.82
2019-03-11T22:37:39.605Z,86.10
2019-03-11T22:40:06.167Z,86.52
2019-03-11T22:42:32.282Z,86.48
2019-03-11T22:44:58.586Z,86.23
2019-03-11T22:47:24.894Z,85.66
2019-03-11T22:49:51.214Z,85.87
2019-03-11T22:52:18.808Z,86.24
2019-03-11T22:54:43.829Z,86.05
2019-03-11T22:57:10.150Z,86.66
2019-03-11T22:59:36.452Z,86.74
2019-03-11T23:02:02.787Z,87.31
2019-03-11T23:04:29.093Z,87.53
2019-03-11T23:06:55.402Z,87.82
2019-03-11T23:09:21.747Z,86.97
2019-03-11T23:11:48.027Z,87.50
2019-03-11T23:14:14.337Z,87.55
2019-03-11T23:16:40.643Z,87.85
2019-03-11T23:19:07.054Z,88.30
2019-03-11T23:21:33.378Z,88.80
2019-03-11T23:23:59.687Z,88.59
2019-03-11T23:26:25.996Z,88.29
2019-03-11T23:28:52.312Z,88.32
2019-03-11T23:31:18.634Z,88.70
2019-03-11T23:33:44.953Z,89.19
2019-03-11T23:36:11.262Z,89.04
2019-03-11T23:38:37.570Z,88.94
2019-03-11T23:41:03.890Z,89.40
2019-03-11T23:43:30.198Z,89.78
2019-03-11T23:45:56.516Z,89.87
2019-03-11T23:48:22.823Z,89.51
2019-03-11T23:50:49.138Z,89.53
2019-03-11T23:53:15.453Z,89.31
2019-03-11T23:55:41.760Z,89.20
2019-03-11T23:58:08.074Z,88.26
